Time;durP1;ratioP1;P1;durP2;ratioP2;P2;SDS_P1;SDS_P2;PMS_P1;PMS_P2;Temp;Humidity;BMP_temperature;BMP_pressure;BME280_temperature;BME280_humidity;BME280_pressure;Samples;Min_cycle;Max_cycle;Signal;HPM_P1;HPM_P2
2021/11/17 02:26:40;;;;;;;5.75;5.25;;;8.80;99.90;;;;;;5027155;28;20243;-90
2021/11/17 02:29:24;;;;;;;5.90;5.40;;;8.80;99.90;;;;;;5014577;28;20215;-93
2021/11/17 02:32:09;;;;;;;6.28;5.78;;;8.90;99.90;;;;;;5017674;28;20267;-90
2021/11/17 02:34:49;;;;;;;6.18;5.68;;;8.80;99.90;;;;;;5026476;28;20224;-90
2021/11/17 02:37:44;;;;;;;6.50;5.93;;;8.90;99.90;;;;;;5015522;28;20231;-90
2021/11/17 02:40:36;;;;;;;6.18;5.68;;;8.90;99.90;;;;;;5019992;28;20215;-91
2021/11/17 02:43:22;;;;;;;5.20;4.80;;;8.90;99.90;;;;;;5024895;28;20227;-91
2021/11/17 02:46:05;;;;;;;6.13;5.63;;;8.90;99.90;;;;;;5031976;28;20223;-92
2021/11/17 02:48:47;;;;;;;6.05;5.55;;;8.90;99.90;;;;;;5010366;28;20231;-91
2021/11/17 02:51:39;;;;;;;5.25;4.85;;;8.90;99.90;;;;;;5027628;28;20288;-91
2021/11/17 02:54:35;;;;;;;5.57;5.18;;;8.90;99.90;;;;;;5026727;28;20516;-91
2021/11/17 02:57:23;;;;;;;5.78;5.32;;;8.90;99.90;;;;;;5035148;28;20235;-90
2021/11/17 03:00:08;;;;;;;5.65;5.18;;;9.00;99.90;;;;;;5034946;28;20265;-90
2021/11/17 03:02:50;;;;;;;6.22;5.72;;;8.90;99.90;;;;;;5024609;28;20237;-89
2021/11/17 03:05:34;;;;;;;5.93;5.43;;;9.00;99.90;;;;;;5019347;28;20224;-91
2021/11/17 03:08:18;;;;;;;5.75;5.25;;;9.00;99.90;;;;;;5021139;28;20223;-90
2021/11/17 03:11:08;;;;;;;6.07;5.57;;;9.00;99.90;;;;;;5017262;28;20329;-91
2021/11/17 03:13:48;;;;;;;6.47;5.93;;;9.00;99.90;;;;;;5019714;28;20235;-90
2021/11/17 03:16:30;;;;;;;6.75;6.18;;;8.90;99.90;;;;;;5014862;28;20362;-90
2021/11/17 03:19:16;;;;;;;6.38;5.88;;;8.90;99.90;;;;;;5015038;28;20223;-92
2021/11/17 03:22:01;;;;;;;6.50;6.00;;;8.90;99.90;;;;;;5015846;28;20242;-90
2021/11/17 03:24:40;;;;;;;6.35;5.75;;;8.90;99.90;;;;;;5019025;28;20219;-89
2021/11/17 03:27:23;;;;;;;6.00;5.50;;;8.90;99.90;;;;;;5026367;28;20290;-91
2021/11/17 03:30:13;;;;;;;6.65;6.13;;;8.90;99.90;;;;;;5013753;28;20223;-89
2021/11/17 03:32:54;;;;;;;6.13;5.53;;;9.00;99.90;;;;;;5019174;28;20224;-91
2021/11/17 03:35:58;;;;;;;5.57;5.07;;;9.00;99.90;;;;;;5031950;28;20233;-90
2021/11/17 03:38:44;;;;;;;6.15;5.65;;;9.00;99.90;;;;;;5048326;28;20681;-92
2021/11/17 03:41:40;;;;;;;5.68;5.18;;;9.00;99.90;;;;;;5036263;28;20239;-92
2021/11/17 03:44:35;;;;;;;6.70;6.10;;;9.00;99.90;;;;;;5021788;28;20212;-92
2021/11/17 03:47:30;;;;;;;7.20;6.47;;;9.00;99.90;;;;;;5025722;28;20249;-92
2021/11/17 03:50:20;;;;;;;7.15;6.45;;;9.00;99.90;;;;;;5015703;28;20725;-91
2021/11/17 03:53:00;;;;;;;6.90;6.20;;;9.00;99.90;;;;;;5019682;28;20219;-91
2021/11/17 03:55:59;;;;;;;6.38;5.78;;;8.90;99.90;;;;;;5015303;28;20223;-90
2021/11/17 03:58:38;;;;;;;6.30;5.70;;;8.90;99.90;;;;;;5014401;28;20227;-92
2021/11/17 04:01:20;;;;;;;6.00;5.50;;;8.90;99.90;;;;;;5023073;28;20230;-91
2021/11/17 04:04:12;;;;;;;7.47;6.45;;;8.90;99.90;;;;;;5020527;28;20230;-91
2021/11/17 04:06:54;;;;;;;5.60;5.10;;;8.80;99.90;;;;;;5014638;28;20220;-92
2021/11/17 04:09:35;;;;;;;5.65;5.22;;;8.90;99.90;;;;;;5009596;28;20223;-89
2021/11/17 04:12:19;;;;;;;5.45;5.03;;;8.90;99.90;;;;;;5013613;28;20224;-89
2021/11/17 04:14:59;;;;;;;5.95;5.45;;;8.90;99.90;;;;;;5019174;28;20208;-91
2021/11/17 04:17:43;;;;;;;6.05;5.55;;;8.90;99.90;;;;;;5010951;28;20238;-91
2021/11/17 04:20:28;;;;;;;6.03;5.53;;;8.90;99.90;;;;;;5010961;28;20234;-91
2021/11/17 04:23:17;;;;;;;6.10;5.60;;;8.90;99.90;;;;;;5015212;28;20216;-90
2021/11/17 04:26:08;;;;;;;6.00;5.50;;;8.90;99.90;;;;;;5013989;28;20236;-91
2021/11/17 04:28:52;;;;;;;6.72;6.13;;;9.00;99.90;;;;;;5014589;28;20228;-93
2021/11/17 04:31:50;;;;;;;5.97;5.40;;;8.90;99.90;;;;;;5019735;28;20226;-92
2021/11/17 04:34:44;;;;;;;6.30;5.50;;;8.90;99.90;;;;;;5020853;28;20228;-92
2021/11/17 04:37:44;;;;;;;6.75;6.15;;;8.80;99.90;;;;;;5004826;28;20247;-91
2021/11/17 04:40:29;;;;;;;7.07;6.43;;;8.80;99.90;;;;;;5021032;28;20231;-89
2021/11/17 04:43:17;;;;;;;6.00;5.50;;;8.80;99.90;;;;;;5014129;28;20219;-90
2021/11/17 04:46:01;;;;;;;6.80;6.10;;;8.70;99.90;;;;;;5017769;28;20236;-91
2021/11/17 04:48:42;;;;;;;6.82;6.13;;;8.70;99.90;;;;;;5015885;28;20303;-91
2021/11/17 04:51:25;;;;;;;6.57;5.97;;;8.70;99.90;;;;;;5021268;28;20243;-91
2021/11/17 04:54:19;;;;;;;6.25;5.65;;;8.70;99.90;;;;;;5022502;28;20223;-89
2021/11/17 04:57:13;;;;;;;6.32;5.82;;;8.70;99.90;;;;;;5023137;28;20231;-91
2021/11/17 05:00:10;;;;;;;5.97;5.47;;;8.70;99.90;;;;;;5032970;28;20230;-91
2021/11/17 05:02:51;;;;;;;6.57;5.97;;;8.70;99.90;;;;;;5021528;28;20594;-90
2021/11/17 05:05:34;;;;;;;6.35;5.85;;;8.70;99.90;;;;;;5015409;28;20224;-92
2021/11/17 05:08:15;;;;;;;7.43;6.72;;;8.70;99.90;;;;;;5012571;28;20220;-90
2021/11/17 05:10:54;;;;;;;6.47;5.88;;;8.70;99.90;;;;;;5013754;28;20251;-91
2021/11/17 05:13:31;;;;;;;6.78;6.18;;;8.70;99.90;;;;;;5013085;28;20227;-91
2021/11/17 05:16:11;;;;;;;6.88;6.22;;;8.70;99.90;;;;;;5017126;28;20228;-92
2021/11/17 05:18:48;;;;;;;6.80;6.30;;;8.70;99.90;;;;;;5029357;28;20215;-89
2021/11/17 05:21:36;;;;;;;7.00;6.40;;;8.70;99.90;;;;;;5034126;28;20291;-90
2021/11/17 05:24:23;;;;;;;6.30;5.80;;;8.70;99.90;;;;;;5029699;28;20223;-92
2021/11/17 05:27:03;;;;;;;6.63;6.03;;;8.70;99.90;;;;;;5028079;28;20225;-89
2021/11/17 05:29:45;;;;;;;6.88;6.28;;;8.70;99.90;;;;;;5008349;28;20227;-90
2021/11/17 05:32:35;;;;;;;6.00;5.53;;;8.70;99.90;;;;;;5005949;28;20242;-91
2021/11/17 05:35:18;;;;;;;6.55;5.95;;;8.70;99.90;;;;;;5031312;28;20665;-91
2021/11/17 05:37:55;;;;;;;6.53;5.93;;;8.80;99.90;;;;;;5027558;28;20330;-89
2021/11/17 05:40:35;;;;;;;6.25;5.68;;;8.70;99.90;;;;;;5018070;28;20231;-88
2021/11/17 05:43:13;;;;;;;6.22;5.72;;;8.80;99.90;;;;;;5009126;28;20224;-90
2021/11/17 05:45:53;;;;;;;6.53;5.93;;;8.80;99.90;;;;;;5011292;28;20692;-91
2021/11/17 05:48:32;;;;;;;7.45;6.05;;;8.80;99.90;;;;;;5034710;28;20257;-88
2021/11/17 05:51:28;;;;;;;6.32;5.82;;;8.80;99.90;;;;;;5019689;28;20216;-88
2021/11/17 05:54:13;;;;;;;6.85;6.25;;;8.80;99.90;;;;;;5008446;28;20285;-88
2021/11/17 05:56:54;;;;;;;8.18;7.38;;;8.80;99.90;;;;;;5005257;28;20227;-91
2021/11/17 05:59:43;;;;;;;9.48;8.57;;;8.80;99.90;;;;;;5008908;28;20274;-90
2021/11/17 06:02:21;;;;;;;8.45;7.57;;;8.70;99.90;;;;;;5008674;28;20224;-91
2021/11/17 06:04:48;;;;;;;8.88;8.07;;;8.70;99.90;;;;;;5008331;28;20235;-91
2021/11/17 06:07:14;;;;;;;9.25;8.15;;;8.70;99.90;;;;;;5006671;28;20227;-92
2021/11/17 06:09:41;;;;;;;8.98;8.18;;;8.60;99.90;;;;;;5011300;28;20236;-92
2021/11/17 06:12:12;;;;;;;8.23;7.43;;;8.70;99.90;;;;;;5005509;28;20664;-90
2021/11/17 06:14:42;;;;;;;8.57;7.78;;;8.70;99.90;;;;;;5006997;28;20227;-91
2021/11/17 06:17:14;;;;;;;8.73;7.95;;;8.70;99.90;;;;;;5005283;28;20287;-91
2021/11/17 06:19:45;;;;;;;8.52;7.72;;;8.70;99.90;;;;;;5006276;28;20251;-89
2021/11/17 06:22:13;;;;;;;8.18;7.25;;;8.70;99.90;;;;;;5004479;28;20228;-91
2021/11/17 06:24:41;;;;;;;8.20;7.47;;;8.70;99.90;;;;;;5006117;28;20293;-91
2021/11/17 06:27:17;;;;;;;8.15;7.40;;;8.80;99.90;;;;;;5007274;28;20246;-90
2021/11/17 06:32:35;;;;;;;8.32;7.63;;;8.80;99.90;;;;;;5014712;28;20318;-89
2021/11/17 06:35:07;;;;;;;8.38;7.57;;;8.80;99.90;;;;;;5011097;28;20231;-91
2021/11/17 06:37:37;;;;;;;7.85;7.15;;;8.80;99.90;;;;;;5007973;28;20251;-89
2021/11/17 06:40:11;;;;;;;7.45;6.78;;;8.80;99.90;;;;;;5012786;28;20228;-89
2021/11/17 06:42:46;;;;;;;7.32;6.72;;;8.80;99.90;;;;;;5014633;28;20283;-89
2021/11/17 06:45:17;;;;;;;7.88;7.07;;;8.80;99.90;;;;;;5012450;28;20230;-90
2021/11/17 06:50:30;;;;;;;8.00;7.25;;;8.80;99.90;;;;;;5025981;28;20231;-91
2021/11/17 06:52:58;;;;;;;7.68;6.97;;;8.80;99.90;;;;;;5024842;28;20219;-90
2021/11/17 06:55:26;;;;;;;7.55;6.88;;;8.80;99.90;;;;;;5028041;28;20237;-89
2021/11/17 06:57:55;;;;;;;7.13;6.43;;;8.80;99.90;;;;;;5021212;28;20221;-90
2021/11/17 07:00:25;;;;;;;7.22;6.63;;;8.80;99.90;;;;;;5019875;28;20235;-88
2021/11/17 07:02:56;;;;;;;7.20;6.57;;;8.80;99.90;;;;;;5006663;28;20231;-92
2021/11/17 07:05:24;;;;;;;7.72;6.95;;;8.80;99.90;;;;;;5022002;28;20252;-88
2021/11/17 07:07:54;;;;;;;7.10;6.50;;;8.80;99.90;;;;;;5029379;28;20318;-91
2021/11/17 07:10:24;;;;;;;7.75;6.97;;;8.80;99.90;;;;;;5026633;28;20994;-88
2021/11/17 07:12:53;;;;;;;6.65;6.07;;;8.90;99.90;;;;;;5015574;28;20523;-91
2021/11/17 07:15:24;;;;;;;7.43;6.80;;;8.90;99.90;;;;;;5012929;28;20230;-91
2021/11/17 07:17:52;;;;;;;7.13;6.53;;;9.00;99.90;;;;;;5007900;28;20304;-91
2021/11/17 07:20:20;;;;;;;7.07;6.47;;;9.00;99.90;;;;;;5013348;28;20227;-90
2021/11/17 07:22:51;;;;;;;6.47;5.97;;;9.00;99.90;;;;;;5005349;28;20238;-90
2021/11/17 07:25:20;;;;;;;7.10;6.50;;;9.10;99.90;;;;;;5008289;28;20235;-90
2021/11/17 07:27:55;;;;;;;7.68;7.00;;;9.20;99.90;;;;;;5009255;28;20235;-91
2021/11/17 07:30:27;;;;;;;6.90;6.30;;;9.20;99.90;;;;;;5030362;28;20223;-90
2021/11/17 07:32:55;;;;;;;7.10;6.50;;;9.40;99.90;;;;;;5027288;28;20227;-89
2021/11/17 07:35:24;;;;;;;7.45;6.78;;;9.50;99.90;;;;;;5026330;28;20750;-89
2021/11/17 07:37:52;;;;;;;7.88;7.18;;;9.60;99.90;;;;;;5026213;28;20236;-91
2021/11/17 07:40:22;;;;;;;8.10;7.40;;;9.70;99.90;;;;;;5015968;28;20224;-91
2021/11/17 07:42:49;;;;;;;8.98;7.80;;;9.80;99.90;;;;;;5016117;28;20220;-91
2021/11/17 07:45:19;;;;;;;8.02;7.32;;;9.90;99.90;;;;;;5007329;28;20243;-89
2021/11/17 07:47:48;;;;;;;9.57;8.43;;;10.00;99.90;;;;;;5012124;28;20231;-92
2021/11/17 07:50:15;;;;;;;7.78;7.00;;;10.00;99.90;;;;;;5007380;28;20244;-90
2021/11/17 07:52:43;;;;;;;8.68;7.88;;;9.90;99.90;;;;;;5038446;28;20226;-89
2021/11/17 07:55:13;;;;;;;7.82;7.13;;;9.90;99.90;;;;;;5026518;28;20223;-91
2021/11/17 07:57:43;;;;;;;8.50;7.70;;;10.00;99.90;;;;;;5015070;28;20224;-89
2021/11/17 08:00:14;;;;;;;9.43;8.55;;;10.00;99.90;;;;;;5008883;28;20613;-91
2021/11/17 08:02:44;;;;;;;8.40;7.70;;;10.10;99.90;;;;;;5005325;28;20254;-92
2021/11/17 08:05:21;;;;;;;9.68;8.77;;;10.10;99.90;;;;;;5010191;28;20239;-91
2021/11/17 08:07:49;;;;;;;8.82;7.95;;;10.10;99.90;;;;;;5021366;28;20601;-91
2021/11/17 08:10:19;;;;;;;12.30;11.00;;;10.20;99.90;;;;;;5029530;28;20689;-92
2021/11/17 08:12:46;;;;;;;19.77;16.35;;;10.20;99.90;;;;;;5017379;28;20226;-91
2021/11/17 08:17:57;;;;;;;13.10;11.50;;;10.30;99.90;;;;;;5011031;28;20250;-90
2021/11/17 08:20:32;;;;;;;13.63;12.00;;;10.40;99.90;;;;;;5011202;28;20616;-91
2021/11/17 08:23:00;;;;;;;12.55;11.35;;;10.50;99.90;;;;;;5005843;28;20226;-89
2021/11/17 08:25:31;;;;;;;11.93;10.77;;;10.70;99.90;;;;;;5008960;28;20224;-91
2021/11/17 08:27:59;;;;;;;10.68;9.68;;;11.10;99.90;;;;;;5011496;28;20224;-91
2021/11/17 08:30:30;;;;;;;11.15;10.15;;;11.70;99.90;;;;;;5006369;28;20251;-90
2021/11/17 08:32:59;;;;;;;10.15;8.80;;;12.10;99.90;;;;;;5006073;28;20315;-92
2021/11/17 08:35:31;;;;;;;9.73;8.82;;;12.20;99.90;;;;;;5009710;28;20232;-91
2021/11/17 08:38:00;;;;;;;9.15;8.35;;;12.20;99.90;;;;;;5008069;28;20242;-91
2021/11/17 08:40:30;;;;;;;9.32;8.43;;;12.10;99.90;;;;;;5012327;28;20706;-91
2021/11/17 08:42:57;;;;;;;8.85;7.97;;;11.90;99.90;;;;;;5009606;28;20232;-91
2021/11/17 08:45:26;;;;;;;8.98;8.18;;;11.70;99.90;;;;;;5010130;28;20238;-92
2021/11/17 08:47:54;;;;;;;9.05;8.13;;;11.60;99.90;;;;;;5008182;28;20227;-92
2021/11/17 08:50:24;;;;;;;9.45;8.55;;;11.40;99.90;;;;;;5010178;28;20235;-92
2021/11/17 08:52:55;;;;;;;9.60;8.65;;;11.30;99.90;;;;;;5012492;28;20231;-90
2021/11/17 08:55:25;;;;;;;9.82;8.90;;;11.30;99.90;;;;;;5010078;28;20243;-91
2021/11/17 08:57:56;;;;;;;9.80;8.85;;;11.20;99.90;;;;;;5006514;28;20228;-90
2021/11/17 09:00:24;;;;;;;9.80;8.63;;;11.20;99.90;;;;;;5012404;28;20233;-90
2021/11/17 09:02:53;;;;;;;9.52;8.63;;;11.20;99.90;;;;;;5008602;28;20239;-90
2021/11/17 09:05:27;;;;;;;9.77;8.77;;;11.20;99.90;;;;;;5009134;28;20235;-91
2021/11/17 09:08:00;;;;;;;9.02;8.13;;;11.30;99.90;;;;;;5008162;28;20230;-91
2021/11/17 09:10:31;;;;;;;10.95;9.02;;;11.40;99.90;;;;;;5011555;28;20239;-91
2021/11/17 09:12:58;;;;;;;10.05;9.15;;;11.40;99.90;;;;;;5010071;28;20220;-92
2021/11/17 09:15:30;;;;;;;10.77;9.57;;;11.50;99.90;;;;;;5008151;28;20228;-90
2021/11/17 09:17:57;;;;;;;11.23;10.13;;;11.50;99.90;;;;;;5008460;28;20234;-90
2021/11/17 09:20:26;;;;;;;9.80;8.90;;;11.60;99.90;;;;;;5006944;28;20228;-91
2021/11/17 09:22:56;;;;;;;11.70;9.93;;;11.50;99.90;;;;;;5010115;28;20232;-92
2021/11/17 09:25:25;;;;;;;10.40;9.40;;;11.50;99.90;;;;;;5007473;28;20242;-90
2021/11/17 09:27:54;;;;;;;11.27;10.10;;;11.60;99.90;;;;;;5007578;28;20230;-90
2021/11/17 09:30:25;;;;;;;10.32;9.32;;;11.90;99.90;;;;;;5009218;28;20238;-92
2021/11/17 09:32:55;;;;;;;10.40;9.50;;;12.40;99.90;;;;;;5009920;28;20228;-90
2021/11/17 09:35:24;;;;;;;10.32;9.27;;;12.80;99.90;;;;;;5016157;28;20247;-90
2021/11/17 09:37:53;;;;;;;10.85;9.32;;;13.00;99.90;;;;;;5010224;28;20228;-92
2021/11/17 09:40:26;;;;;;;9.70;8.80;;;13.00;99.90;;;;;;5008971;28;20224;-91
2021/11/17 09:42:58;;;;;;;9.50;8.60;;;12.90;99.90;;;;;;4980425;28;20228;-91
2021/11/17 09:45:27;;;;;;;9.82;8.82;;;13.00;99.90;;;;;;5009310;28;20793;-92
2021/11/17 09:47:56;;;;;;;9.32;8.43;;;13.10;99.90;;;;;;5009609;28;20232;-91
2021/11/17 09:50:29;;;;;;;10.75;8.60;;;13.30;99.90;;;;;;5009440;28;20712;-90
2021/11/17 09:53:01;;;;;;;9.77;8.65;;;13.50;99.90;;;;;;5007473;28;20235;-90
2021/11/17 09:58:23;;;;;;;9.38;8.57;;;13.90;99.90;;;;;;5014507;28;20224;-91
2021/11/17 10:01:01;;;;;;;10.07;9.13;;;13.60;99.90;;;;;;5024698;28;20219;-93
2021/11/17 10:14:52;;;;;;;8.68;7.72;;;13.10;99.90;;;;;;5016742;28;20269;-92
2021/11/17 10:17:46;;;;;;;8.38;7.57;;;13.40;99.90;;;;;;5020646;28;20319;-89
2021/11/17 10:20:30;;;;;;;8.13;7.43;;;13.60;99.90;;;;;;5016111;28;20230;-91
2021/11/17 10:23:18;;;;;;;8.35;7.63;;;13.80;99.90;;;;;;5022213;28;20231;-90
2021/11/17 10:25:54;;;;;;;8.02;7.32;;;14.00;99.90;;;;;;5019072;28;20231;-91
2021/11/17 10:28:31;;;;;;;8.32;7.57;;;14.10;99.90;;;;;;5023566;28;20218;-89
2021/11/17 10:36:54;;;;;;;10.10;8.57;;;13.90;99.90;;;;;;5040925;28;20235;-91
2021/11/17 10:39:27;;;;;;;9.73;8.43;;;13.90;99.90;;;;;;5019285;28;20219;-89
2021/11/17 10:42:04;;;;;;;8.45;7.68;;;13.90;99.90;;;;;;5038668;28;20223;-91
2021/11/17 11:13:14;;;;;;;8.02;7.22;;;14.80;99.90;;;;;;5080099;22;20254;-77
2021/11/17 11:15:49;;;;;;;7.88;7.07;;;14.70;99.90;;;;;;5058718;28;20700;-78
2021/11/17 11:18:38;;;;;;;7.60;6.90;;;14.70;99.90;;;;;;5060372;28;20247;-78
2021/11/17 11:21:07;;;;;;;6.93;6.32;;;14.50;99.90;;;;;;5058514;28;20691;-76
2021/11/17 11:23:35;;;;;;;7.30;6.65;;;14.20;99.90;;;;;;5053965;28;20218;-76
2021/11/17 11:26:08;;;;;;;7.78;6.97;;;13.80;99.90;;;;;;5059639;28;20243;-77
2021/11/17 11:31:45;;;;;;;7.30;6.60;;;13.60;99.90;;;;;;4954919;28;20237;-77
2021/11/17 11:35:10;;;;;;;7.43;6.70;;;13.60;99.90;;;;;;4898296;28;20630;-76
2021/11/17 11:44:36;;;;;;;6.97;6.38;;;13.40;99.90;;;;;;5018563;28;20229;-77
2021/11/17 11:47:43;;;;;;;6.65;5.70;;;13.40;99.90;;;;;;5068515;28;20225;-77
2021/11/17 11:50:58;;;;;;;6.80;6.20;;;13.40;99.90;;;;;;5060730;28;20793;-78
2021/11/17 11:53:49;;;;;;;6.53;6.03;;;13.30;99.90;;;;;;5051599;28;20284;-77
2021/11/17 11:56:26;;;;;;;6.47;5.88;;;13.20;99.90;;;;;;5062672;28;20234;-77
2021/11/17 11:59:04;;;;;;;7.03;6.38;;;13.00;99.90;;;;;;5063690;28;20213;-77
2021/11/17 12:01:33;;;;;;;6.88;6.28;;;13.00;99.90;;;;;;5064360;28;20221;-76
2021/11/17 12:04:06;;;;;;;6.85;6.22;;;13.00;99.90;;;;;;5063336;28;20236;-77
2021/11/17 12:06:38;;;;;;;6.57;6.07;;;13.00;99.90;;;;;;5063529;28;20240;-78
2021/11/17 12:09:18;;;;;;;6.95;6.38;;;13.00;99.90;;;;;;5062125;28;20221;-77
2021/11/17 12:11:49;;;;;;;6.47;5.85;;;13.00;99.90;;;;;;5064050;28;20241;-77
2021/11/17 12:14:34;;;;;;;6.93;6.32;;;12.90;99.90;;;;;;5061751;28;20230;-78
2021/11/17 12:17:05;;;;;;;6.43;5.82;;;12.90;99.90;;;;;;5057241;28;20217;-78
2021/11/17 12:19:38;;;;;;;7.25;6.60;;;12.80;99.90;;;;;;5057369;28;20245;-76
2021/11/17 12:22:09;;;;;;;7.03;6.32;;;12.80;99.90;;;;;;5061049;28;20224;-78
2021/11/17 12:24:38;;;;;;;6.03;5.53;;;12.70;99.90;;;;;;5060913;28;20226;-76
2021/11/17 12:27:08;;;;;;;6.88;6.28;;;12.50;99.90;;;;;;5059651;28;20218;-77
2021/11/17 12:29:46;;;;;;;6.45;5.85;;;12.50;99.90;;;;;;5060582;28;20226;-75
2021/11/17 12:32:23;;;;;;;6.10;5.60;;;12.40;99.90;;;;;;5060990;28;20233;-76
2021/11/17 12:35:00;;;;;;;6.90;6.20;;;12.50;99.90;;;;;;5060010;28;20244;-77
2021/11/17 12:37:32;;;;;;;6.78;6.07;;;12.40;99.90;;;;;;5059877;28;20229;-78
2021/11/17 12:40:11;;;;;;;6.32;5.80;;;12.40;99.90;;;;;;5060145;28;20313;-77
2021/11/17 12:42:43;;;;;;;7.15;6.53;;;12.30;99.90;;;;;;5057859;28;20230;-76
2021/11/17 12:45:19;;;;;;;6.68;6.07;;;12.30;99.90;;;;;;5061849;28;20901;-76
2021/11/17 12:47:50;;;;;;;7.53;6.82;;;12.20;99.90;;;;;;5059081;28;20226;-77
2021/11/17 12:50:20;;;;;;;7.40;6.70;;;12.10;99.90;;;;;;5063510;28;20320;-77
2021/11/17 12:52:53;;;;;;;7.32;6.63;;;12.10;99.90;;;;;;5066294;28;20702;-78
2021/11/17 12:55:24;;;;;;;7.80;7.10;;;12.00;99.90;;;;;;5067540;28;20238;-78
2021/11/17 12:57:54;;;;;;;7.70;7.00;;;12.00;99.90;;;;;;5068968;28;20229;-79
2021/11/17 13:00:49;;;;;;;7.75;7.05;;;12.00;99.90;;;;;;5064413;28;20238;-78
2021/11/17 13:03:32;;;;;;;7.22;6.57;;;12.00;99.90;;;;;;5060345;28;20313;-77
2021/11/17 13:06:19;;;;;;;6.53;5.88;;;12.10;99.90;;;;;;5066687;28;20225;-76
2021/11/17 13:09:04;;;;;;;6.25;5.65;;;12.20;99.90;;;;;;5064012;28;20236;-76
2021/11/17 13:11:32;;;;;;;7.85;7.05;;;12.20;99.90;;;;;;5065223;28;20222;-75
2021/11/17 13:13:59;;;;;;;6.57;5.95;;;12.20;99.90;;;;;;5066265;28;20222;-75
2021/11/17 13:16:35;;;;;;;7.38;6.60;;;12.20;99.90;;;;;;5066336;28;20237;-75
2021/11/17 13:19:05;;;;;;;7.63;6.85;;;12.20;99.90;;;;;;5065718;28;20810;-77
2021/11/17 13:21:36;;;;;;;6.28;5.78;;;12.30;99.90;;;;;;5071820;28;20225;-76
2021/11/17 13:24:11;;;;;;;6.90;6.30;;;12.30;99.90;;;;;;5062832;28;20226;-77
2021/11/17 13:26:41;;;;;;;7.88;7.18;;;12.30;99.90;;;;;;5066715;28;20228;-76
2021/11/17 13:29:27;;;;;;;7.20;6.57;;;12.30;99.90;;;;;;5066780;28;20715;-77
2021/11/17 13:32:11;;;;;;;6.88;6.28;;;12.30;99.90;;;;;;5065483;28;20232;-76
2021/11/17 13:34:42;;;;;;;7.35;6.65;;;12.40;99.90;;;;;;5065765;28;20232;-76
2021/11/17 13:37:20;;;;;;;6.97;6.28;;;12.40;99.90;;;;;;5066205;28;20222;-77
2021/11/17 13:39:47;;;;;;;6.72;6.13;;;12.40;99.90;;;;;;5064894;28;20226;-77
2021/11/17 13:42:15;;;;;;;7.35;6.65;;;12.40;99.90;;;;;;5065299;28;20229;-76
2021/11/17 13:44:42;;;;;;;6.82;6.18;;;12.40;99.90;;;;;;5065456;28;20238;-77
2021/11/17 13:47:13;;;;;;;6.15;5.65;;;12.40;99.90;;;;;;5066445;28;20221;-77
2021/11/17 13:49:44;;;;;;;6.57;5.97;;;12.50;99.90;;;;;;5065196;28;20244;-76
2021/11/17 13:52:13;;;;;;;6.97;6.38;;;12.50;99.90;;;;;;5069661;28;20214;-77
2021/11/17 13:54:41;;;;;;;7.15;6.55;;;12.50;99.90;;;;;;5067435;28;20317;-80
2021/11/17 13:57:11;;;;;;;7.10;6.50;;;12.50;99.90;;;;;;5065223;28;20213;-76
2021/11/17 13:59:40;;;;;;;8.05;7.25;;;12.50;99.90;;;;;;5059051;28;20722;-78
2021/11/17 14:02:10;;;;;;;7.15;6.55;;;12.50;99.90;;;;;;5064538;28;20233;-76
2021/11/17 14:04:37;;;;;;;7.05;6.45;;;12.40;99.90;;;;;;5066574;28;20742;-76
2021/11/17 14:07:07;;;;;;;7.20;6.50;;;12.40;99.90;;;;;;5060580;28;20222;-75
2021/11/17 14:09:34;;;;;;;6.72;6.13;;;12.40;99.90;;;;;;5067699;28;20245;-75
2021/11/17 14:12:02;;;;;;;6.47;5.88;;;12.30;99.90;;;;;;5066329;28;20272;-77
2021/11/17 14:14:29;;;;;;;7.55;6.75;;;12.30;99.90;;;;;;5061990;28;20239;-75
2021/11/17 14:16:57;;;;;;;7.43;6.63;;;12.30;99.90;;;;;;5066462;28;20221;-76
2021/11/17 14:19:24;;;;;;;7.15;6.55;;;12.30;99.90;;;;;;5064878;28;20233;-76
2021/11/17 14:21:51;;;;;;;6.78;6.18;;;12.30;99.90;;;;;;5062195;28;20237;-80
2021/11/17 14:34:34;;;;;;;8.63;7.82;;;12.20;99.90;;;;;;4969698;28;20234;-76
2021/11/17 14:57:22;;;;;;;6.38;5.78;;;11.60;99.90;;;;;;4716173;29;20254;-78
2021/11/17 15:00:15;;;;;;;6.53;5.93;;;11.60;99.90;;;;;;4702332;29;20302;-76
2021/11/17 15:43:10;;;;;;;8.10;6.78;;;11.30;99.90;;;;;;4933630;28;20228;-76
2021/11/17 15:52:34;;;;;;;6.63;6.03;;;11.20;99.90;;;;;;4763557;29;20651;-78
2021/11/17 15:55:38;;;;;;;6.22;5.70;;;11.10;99.90;;;;;;4770314;28;20245;-74
2021/11/17 15:58:46;;;;;;;8.40;7.60;;;11.10;99.90;;;;;;4925224;28;20249;-74
2021/11/17 16:05:01;;;;;;;7.30;6.60;;;11.00;99.90;;;;;;4922887;28;20234;-76
2021/11/17 17:18:16;;;;;;;7.78;6.85;;;10.60;99.90;;;;;;5002980;28;20217;-75
2021/11/17 17:20:46;;;;;;;6.75;6.15;;;10.60;99.90;;;;;;4989299;28;20794;-76
2021/11/17 17:23:13;;;;;;;7.10;6.40;;;10.50;99.90;;;;;;5002867;28;20224;-76
2021/11/17 17:25:42;;;;;;;6.68;6.07;;;10.50;99.90;;;;;;5002342;28;20224;-76
2021/11/17 17:28:10;;;;;;;7.47;6.70;;;10.50;99.90;;;;;;4998102;28;20264;-77
2021/11/17 17:30:38;;;;;;;8.23;7.35;;;10.50;99.90;;;;;;5003022;28;20322;-78
2021/11/17 17:33:07;;;;;;;7.53;6.82;;;10.50;99.90;;;;;;4996966;28;20232;-78
2021/11/17 17:35:36;;;;;;;7.82;6.82;;;10.50;99.90;;;;;;4998564;28;20224;-77
2021/11/17 17:38:04;;;;;;;7.63;6.88;;;10.50;99.90;;;;;;4994788;28;20228;-77
2021/11/17 17:40:31;;;;;;;7.28;6.57;;;10.40;99.90;;;;;;4996245;28;20237;-77
2021/11/17 17:43:01;;;;;;;8.48;6.93;;;10.50;99.90;;;;;;4991351;28;20224;-77
2021/11/17 17:45:29;;;;;;;7.65;6.72;;;10.50;99.90;;;;;;5000428;28;20777;-77
2021/11/17 17:47:56;;;;;;;7.43;6.63;;;10.50;99.90;;;;;;4994054;28;20658;-79
2021/11/17 17:50:27;;;;;;;7.75;6.70;;;10.40;99.90;;;;;;4996209;28;20233;-78
2021/11/17 17:52:56;;;;;;;11.52;9.00;;;10.50;99.90;;;;;;4998003;28;20319;-77
2021/11/17 17:55:23;;;;;;;25.88;18.00;;;10.50;99.90;;;;;;4994456;28;20232;-76
2021/11/17 17:57:50;;;;;;;36.22;24.30;;;10.50;99.90;;;;;;4995046;28;20232;-77
2021/11/17 18:00:18;;;;;;;34.30;23.45;;;10.50;99.90;;;;;;4999613;28;20343;-78
2021/11/17 18:02:46;;;;;;;28.25;20.23;;;10.50;99.90;;;;;;5010429;22;20259;-74
2021/11/17 18:05:15;;;;;;;22.40;16.35;;;10.40;99.90;;;;;;5011612;28;20457;-75
2021/11/17 18:07:43;;;;;;;16.95;13.60;;;10.40;99.90;;;;;;4996547;28;20743;-77
2021/11/17 18:10:15;;;;;;;15.15;12.45;;;10.40;99.90;;;;;;4980549;28;20400;-79
2021/11/17 18:12:42;;;;;;;14.23;10.85;;;10.30;99.90;;;;;;4995834;28;20352;-78
2021/11/17 18:15:10;;;;;;;11.73;9.63;;;10.30;99.90;;;;;;4994136;28;20224;-80
2021/11/17 18:17:40;;;;;;;9.57;8.55;;;10.30;99.90;;;;;;5000723;28;20224;-79
2021/11/17 18:20:09;;;;;;;9.80;8.73;;;10.30;99.90;;;;;;4986649;28;20831;-78
2021/11/17 18:22:37;;;;;;;9.27;7.85;;;10.20;99.90;;;;;;4993392;28;20239;-82
2021/11/17 18:25:07;;;;;;;7.82;7.13;;;10.20;99.90;;;;;;4979152;28;20216;-78
2021/11/17 18:27:36;;;;;;;8.57;7.68;;;10.20;99.90;;;;;;4983509;28;20226;-74
2021/11/17 18:30:05;;;;;;;8.10;7.30;;;10.20;99.90;;;;;;4990164;28;20216;-78
2021/11/17 18:32:32;;;;;;;7.88;7.07;;;10.10;99.90;;;;;;4989683;28;20228;-75
2021/11/17 18:35:00;;;;;;;7.70;6.68;;;10.10;99.90;;;;;;5001412;28;20736;-75
2021/11/17 18:37:27;;;;;;;7.55;6.78;;;10.10;99.90;;;;;;4984462;28;20297;-75
2021/11/17 18:39:54;;;;;;;6.68;6.00;;;10.10;99.90;;;;;;4990523;28;20269;-79
2021/11/17 18:42:23;;;;;;;6.43;5.82;;;10.10;99.90;;;;;;4980092;28;20228;-78
2021/11/17 18:44:53;;;;;;;8.13;6.30;;;10.10;99.90;;;;;;4983674;28;20733;-77
2021/11/17 18:47:20;;;;;;;6.93;6.32;;;10.00;99.90;;;;;;4995151;28;20321;-80
2021/11/17 18:49:48;;;;;;;7.45;6.65;;;10.00;99.90;;;;;;4972787;28;20244;-79
2021/11/17 18:52:16;;;;;;;7.90;7.15;;;10.00;99.90;;;;;;4986958;28;20601;-81
2021/11/17 18:54:44;;;;;;;7.05;6.35;;;10.00;99.90;;;;;;4991078;28;20590;-78
2021/11/17 18:57:11;;;;;;;6.85;6.18;;;10.00;99.90;;;;;;4977916;28;20232;-78
2021/11/17 18:59:40;;;;;;;7.32;6.50;;;10.00;99.90;;;;;;4982134;28;20442;-82
2021/11/17 19:02:21;;;;;;;6.78;6.18;;;10.00;99.90;;;;;;4969541;28;20224;-79
2021/11/17 19:04:48;;;;;;;7.28;6.57;;;10.00;99.90;;;;;;4985428;28;20224;-78
2021/11/17 19:07:15;;;;;;;7.13;6.53;;;10.00;99.90;;;;;;4986363;28;20231;-81
2021/11/17 19:09:42;;;;;;;6.50;5.90;;;10.00;99.90;;;;;;4986830;28;20227;-75
2021/11/17 19:12:09;;;;;;;6.72;6.13;;;9.90;99.90;;;;;;4984227;28;20229;-78
2021/11/17 19:14:36;;;;;;;6.00;5.50;;;9.90;99.90;;;;;;4988707;28;20227;-77
2021/11/17 19:17:06;;;;;;;5.68;5.18;;;9.80;99.90;;;;;;4987842;28;20323;-74
2021/11/17 19:19:34;;;;;;;5.20;4.80;;;9.80;99.90;;;;;;4988712;28;20663;-77
2021/11/17 19:22:01;;;;;;;6.15;5.55;;;9.80;99.90;;;;;;4994300;28;20230;-76
2021/11/17 19:24:31;;;;;;;5.65;5.15;;;9.80;99.90;;;;;;4989359;28;20232;-77
2021/11/17 19:26:59;;;;;;;5.47;4.97;;;9.80;99.90;;;;;;4991001;28;20702;-79
2021/11/17 19:29:27;;;;;;;5.07;4.68;;;9.80;99.90;;;;;;4985424;28;20524;-78
2021/11/17 19:31:56;;;;;;;5.85;5.35;;;9.80;99.90;;;;;;4992771;28;20227;-73
2021/11/17 19:34:24;;;;;;;5.15;4.75;;;9.80;99.90;;;;;;4989847;28;20231;-78
2021/11/17 19:36:53;;;;;;;5.30;4.90;;;9.80;99.90;;;;;;4991147;28;20710;-76